Weather at Bazas Cazats

Public forecast

Using degrees Celsius for public forecast. Weather courtesy of forecast.io.

Closest aviation weather report (METAR) to Bazas Cazats

Report is more than 6 hours old.

Closest report is Bordeaux-Mérignac Airport, 31.5 nm (58.3 km) NW. Retrieved 2022/09/17 19:00 UTC (18 days ago):

LFBD 171900Z AUTO 03006KT CAVOK 18/03 Q1019 NOSIG

Closest aviation forecast (TAF) to Bazas Cazats

Forecast is more than 12 hours old.

Closest forecast is Bordeaux-Mérignac Airport, 31.5 nm (58.3 km) NW. Retrieved 2022/09/17 18:21 UTC (18 days ago):

TAF TAF LFBD 171700Z 1718/1824 04010KT CAVOK TX27/1815Z TN09/1806Z